sensor_id;sensor_type;location;lat;lon;timestamp;temperature;humidity
52555;DHT22;38455;52.710;6.502;2023-10-31T00:01:04;12.40;99.90
52555;DHT22;38455;52.710;6.502;2023-10-31T00:03:31;12.40;99.90
52555;DHT22;38455;52.710;6.502;2023-10-31T00:05:57;12.40;99.90
52555;DHT22;38455;52.710;6.502;2023-10-31T00:08:22;12.40;99.90
52555;DHT22;38455;52.710;6.502;2023-10-31T00:10:49;12.50;99.90
52555;DHT22;38455;52.710;6.502;2023-10-31T00:13:15;12.40;99.90
52555;DHT22;38455;52.710;6.502;2023-10-31T00:15:41;12.50;99.90
52555;DHT22;38455;52.710;6.502;2023-10-31T00:18:07;12.50;99.90
52555;DHT22;38455;52.710;6.502;2023-10-31T00:20:32;12.40;99.90
52555;DHT22;38455;52.710;6.502;2023-10-31T00:22:58;12.50;99.90
52555;DHT22;38455;52.710;6.502;2023-10-31T00:25:24;12.40;99.90
52555;DHT22;38455;52.710;6.502;2023-10-31T00:27:49;12.40;99.90
52555;DHT22;38455;52.710;6.502;2023-10-31T00:30:15;12.40;99.90
52555;DHT22;38455;52.710;6.502;2023-10-31T00:32:41;12.40;99.90
52555;DHT22;38455;52.710;6.502;2023-10-31T00:35:07;12.40;99.90
52555;DHT22;38455;52.710;6.502;2023-10-31T00:37:32;12.40;99.90
52555;DHT22;38455;52.710;6.502;2023-10-31T00:39:58;12.40;99.90
52555;DHT22;38455;52.710;6.502;2023-10-31T00:42:23;12.40;99.90
52555;DHT22;38455;52.710;6.502;2023-10-31T00:44:49;12.30;99.90
52555;DHT22;38455;52.710;6.502;2023-10-31T00:47:15;12.30;99.90
52555;DHT22;38455;52.710;6.502;2023-10-31T00:49:41;12.20;99.90
52555;DHT22;38455;52.710;6.502;2023-10-31T00:52:06;12.20;99.90
52555;DHT22;38455;52.710;6.502;2023-10-31T00:54:32;12.10;99.90
52555;DHT22;38455;52.710;6.502;2023-10-31T00:56:58;12.00;99.90
52555;DHT22;38455;52.710;6.502;2023-10-31T00:59:23;11.90;99.90
52555;DHT22;38455;52.710;6.502;2023-10-31T01:01:49;11.90;99.90
52555;DHT22;38455;52.710;6.502;2023-10-31T01:04:15;11.80;99.90
52555;DHT22;38455;52.710;6.502;2023-10-31T01:06:43;11.70;99.90
52555;DHT22;38455;52.710;6.502;2023-10-31T01:09:09;11.60;99.90
52555;DHT22;38455;52.710;6.502;2023-10-31T01:11:35;11.60;99.90
52555;DHT22;38455;52.710;6.502;2023-10-31T01:14:01;11.50;99.90
52555;DHT22;38455;52.710;6.502;2023-10-31T01:16:27;11.30;99.90
52555;DHT22;38455;52.710;6.502;2023-10-31T01:18:52;11.30;99.90
52555;DHT22;38455;52.710;6.502;2023-10-31T01:21:18;11.20;99.90
52555;DHT22;38455;52.710;6.502;2023-10-31T01:23:44;11.10;99.90
52555;DHT22;38455;52.710;6.502;2023-10-31T01:26:09;11.10;99.90
52555;DHT22;38455;52.710;6.502;2023-10-31T01:28:35;11.10;99.90
52555;DHT22;38455;52.710;6.502;2023-10-31T01:31:01;11.00;99.90
52555;DHT22;38455;52.710;6.502;2023-10-31T01:33:26;10.90;99.90
52555;DHT22;38455;52.710;6.502;2023-10-31T01:35:52;10.90;99.90
52555;DHT22;38455;52.710;6.502;2023-10-31T01:38:18;10.80;99.90
52555;DHT22;38455;52.710;6.502;2023-10-31T01:40:43;10.80;99.90
52555;DHT22;38455;52.710;6.502;2023-10-31T01:43:09;10.70;99.90
52555;DHT22;38455;52.710;6.502;2023-10-31T01:45:34;10.60;99.90
52555;DHT22;38455;52.710;6.502;2023-10-31T01:48:00;10.70;99.90
52555;DHT22;38455;52.710;6.502;2023-10-31T01:50:26;10.60;99.90
52555;DHT22;38455;52.710;6.502;2023-10-31T01:52:53;10.60;99.90
52555;DHT22;38455;52.710;6.502;2023-10-31T01:55:19;10.50;99.90
52555;DHT22;38455;52.710;6.502;2023-10-31T01:57:48;10.50;99.90
52555;DHT22;38455;52.710;6.502;2023-10-31T02:00:15;10.50;99.90
52555;DHT22;38455;52.710;6.502;2023-10-31T02:02:41;10.50;99.90
52555;DHT22;38455;52.710;6.502;2023-10-31T02:05:10;10.50;99.90
52555;DHT22;38455;52.710;6.502;2023-10-31T02:07:36;10.50;99.90
52555;DHT22;38455;52.710;6.502;2023-10-31T02:10:01;10.50;99.90
52555;DHT22;38455;52.710;6.502;2023-10-31T02:12:37;10.60;99.90
52555;DHT22;38455;52.710;6.502;2023-10-31T02:15:03;10.60;99.90
52555;DHT22;38455;52.710;6.502;2023-10-31T02:17:29;10.60;99.90
52555;DHT22;38455;52.710;6.502;2023-10-31T02:19:55;10.50;99.90
52555;DHT22;38455;52.710;6.502;2023-10-31T02:22:22;10.50;99.90
52555;DHT22;38455;52.710;6.502;2023-10-31T02:24:48;10.50;99.90
52555;DHT22;38455;52.710;6.502;2023-10-31T02:27:13;10.50;99.90
52555;DHT22;38455;52.710;6.502;2023-10-31T02:29:39;10.50;99.90
52555;DHT22;38455;52.710;6.502;2023-10-31T02:32:05;10.50;99.90
52555;DHT22;38455;52.710;6.502;2023-10-31T02:34:31;10.50;99.90
52555;DHT22;38455;52.710;6.502;2023-10-31T02:36:57;10.50;99.90
52555;DHT22;38455;52.710;6.502;2023-10-31T02:39:22;10.60;99.90
52555;DHT22;38455;52.710;6.502;2023-10-31T02:41:48;10.60;99.90
52555;DHT22;38455;52.710;6.502;2023-10-31T02:44:15;10.60;99.90
52555;DHT22;38455;52.710;6.502;2023-10-31T02:46:41;10.60;99.90
52555;DHT22;38455;52.710;6.502;2023-10-31T02:49:07;10.60;99.90
52555;DHT22;38455;52.710;6.502;2023-10-31T02:51:35;10.60;99.90
52555;DHT22;38455;52.710;6.502;2023-10-31T02:54:01;10.70;99.90
52555;DHT22;38455;52.710;6.502;2023-10-31T02:56:26;10.70;99.90
52555;DHT22;38455;52.710;6.502;2023-10-31T02:58:52;10.70;99.90
52555;DHT22;38455;52.710;6.502;2023-10-31T03:01:18;10.70;99.90
52555;DHT22;38455;52.710;6.502;2023-10-31T03:03:45;10.70;99.90
52555;DHT22;38455;52.710;6.502;2023-10-31T03:06:11;10.70;99.90
52555;DHT22;38455;52.710;6.502;2023-10-31T03:08:36;10.70;99.90
52555;DHT22;38455;52.710;6.502;2023-10-31T03:11:02;10.80;99.90
52555;DHT22;38455;52.710;6.502;2023-10-31T03:13:28;10.70;99.90
52555;DHT22;38455;52.710;6.502;2023-10-31T03:15:53;10.80;99.90
52555;DHT22;38455;52.710;6.502;2023-10-31T03:18:19;10.80;99.90
52555;DHT22;38455;52.710;6.502;2023-10-31T03:20:45;10.80;99.90
52555;DHT22;38455;52.710;6.502;2023-10-31T03:23:14;10.80;99.90
52555;DHT22;38455;52.710;6.502;2023-10-31T03:25:40;10.80;99.90
52555;DHT22;38455;52.710;6.502;2023-10-31T03:28:18;10.80;99.90
52555;DHT22;38455;52.710;6.502;2023-10-31T03:30:46;10.90;99.90
52555;DHT22;38455;52.710;6.502;2023-10-31T03:33:11;10.90;99.90
52555;DHT22;38455;52.710;6.502;2023-10-31T03:35:37;10.90;99.90
52555;DHT22;38455;52.710;6.502;2023-10-31T03:38:03;10.90;99.90
52555;DHT22;38455;52.710;6.502;2023-10-31T03:40:28;10.90;99.90
52555;DHT22;38455;52.710;6.502;2023-10-31T03:42:54;10.80;99.90
52555;DHT22;38455;52.710;6.502;2023-10-31T03:45:20;10.90;99.90
52555;DHT22;38455;52.710;6.502;2023-10-31T03:47:45;10.90;99.90
52555;DHT22;38455;52.710;6.502;2023-10-31T03:50:11;10.90;99.90
52555;DHT22;38455;52.710;6.502;2023-10-31T03:52:36;10.90;99.90
52555;DHT22;38455;52.710;6.502;2023-10-31T03:55:02;10.90;99.90
52555;DHT22;38455;52.710;6.502;2023-10-31T03:57:28;10.90;99.90
52555;DHT22;38455;52.710;6.502;2023-10-31T03:59:53;10.90;99.90
52555;DHT22;38455;52.710;6.502;2023-10-31T04:02:19;10.80;99.90
52555;DHT22;38455;52.710;6.502;2023-10-31T04:04:45;10.80;99.90
52555;DHT22;38455;52.710;6.502;2023-10-31T04:07:10;10.80;99.90
52555;DHT22;38455;52.710;6.502;2023-10-31T04:09:36;10.80;99.90
52555;DHT22;38455;52.710;6.502;2023-10-31T04:12:02;10.80;99.90
52555;DHT22;38455;52.710;6.502;2023-10-31T04:14:27;10.70;99.90
52555;DHT22;38455;52.710;6.502;2023-10-31T04:16:53;10.70;99.90
52555;DHT22;38455;52.710;6.502;2023-10-31T04:19:18;10.70;99.90
52555;DHT22;38455;52.710;6.502;2023-10-31T04:21:44;10.70;99.90
52555;DHT22;38455;52.710;6.502;2023-10-31T04:24:10;10.70;99.90
52555;DHT22;38455;52.710;6.502;2023-10-31T04:26:35;10.70;99.90
52555;DHT22;38455;52.710;6.502;2023-10-31T04:29:01;10.60;99.90
52555;DHT22;38455;52.710;6.502;2023-10-31T04:31:26;10.70;99.90
52555;DHT22;38455;52.710;6.502;2023-10-31T04:33:52;10.70;99.90
52555;DHT22;38455;52.710;6.502;2023-10-31T04:36:17;10.70;99.90
52555;DHT22;38455;52.710;6.502;2023-10-31T04:38:43;10.70;99.90
52555;DHT22;38455;52.710;6.502;2023-10-31T04:41:09;10.70;99.90
52555;DHT22;38455;52.710;6.502;2023-10-31T04:43:35;10.70;99.90
52555;DHT22;38455;52.710;6.502;2023-10-31T04:46:00;10.70;99.90
52555;DHT22;38455;52.710;6.502;2023-10-31T04:48:26;10.70;99.90
52555;DHT22;38455;52.710;6.502;2023-10-31T04:50:52;10.70;99.90
52555;DHT22;38455;52.710;6.502;2023-10-31T04:53:17;10.70;99.90
52555;DHT22;38455;52.710;6.502;2023-10-31T04:55:43;10.60;99.90
52555;DHT22;38455;52.710;6.502;2023-10-31T04:58:08;10.60;99.90
52555;DHT22;38455;52.710;6.502;2023-10-31T05:00:34;10.60;99.90
52555;DHT22;38455;52.710;6.502;2023-10-31T05:03:00;10.60;99.90
52555;DHT22;38455;52.710;6.502;2023-10-31T05:05:28;10.60;99.90
52555;DHT22;38455;52.710;6.502;2023-10-31T05:07:53;10.60;99.90
52555;DHT22;38455;52.710;6.502;2023-10-31T05:10:19;10.60;99.90
52555;DHT22;38455;52.710;6.502;2023-10-31T05:12:45;10.60;99.90
52555;DHT22;38455;52.710;6.502;2023-10-31T05:15:10;10.60;99.90
52555;DHT22;38455;52.710;6.502;2023-10-31T05:17:36;10.60;99.90
52555;DHT22;38455;52.710;6.502;2023-10-31T05:20:02;10.60;99.90
52555;DHT22;38455;52.710;6.502;2023-10-31T05:22:27;10.60;99.90
52555;DHT22;38455;52.710;6.502;2023-10-31T05:24:53;10.60;99.90
52555;DHT22;38455;52.710;6.502;2023-10-31T05:27:19;10.60;99.90
52555;DHT22;38455;52.710;6.502;2023-10-31T05:29:45;10.60;99.90
52555;DHT22;38455;52.710;6.502;2023-10-31T05:32:10;10.60;99.90
52555;DHT22;38455;52.710;6.502;2023-10-31T05:34:36;10.60;99.90
52555;DHT22;38455;52.710;6.502;2023-10-31T05:37:02;10.50;99.90
52555;DHT22;38455;52.710;6.502;2023-10-31T05:39:27;10.50;99.90
52555;DHT22;38455;52.710;6.502;2023-10-31T05:41:53;10.50;99.90
52555;DHT22;38455;52.710;6.502;2023-10-31T05:44:19;10.60;99.90
52555;DHT22;38455;52.710;6.502;2023-10-31T05:46:44;10.60;99.90
52555;DHT22;38455;52.710;6.502;2023-10-31T05:49:10;10.50;99.90
52555;DHT22;38455;52.710;6.502;2023-10-31T05:51:36;10.60;99.90
52555;DHT22;38455;52.710;6.502;2023-10-31T05:54:02;10.60;99.90
52555;DHT22;38455;52.710;6.502;2023-10-31T05:56:27;10.60;99.90
52555;DHT22;38455;52.710;6.502;2023-10-31T05:58:53;10.60;99.90
52555;DHT22;38455;52.710;6.502;2023-10-31T06:01:19;10.60;99.90
52555;DHT22;38455;52.710;6.502;2023-10-31T06:03:44;10.50;99.90
52555;DHT22;38455;52.710;6.502;2023-10-31T06:06:11;10.60;99.90
52555;DHT22;38455;52.710;6.502;2023-10-31T06:08:38;10.60;99.90
52555;DHT22;38455;52.710;6.502;2023-10-31T06:11:04;10.60;99.90
52555;DHT22;38455;52.710;6.502;2023-10-31T06:13:29;10.60;99.90
52555;DHT22;38455;52.710;6.502;2023-10-31T06:15:57;10.50;99.90
52555;DHT22;38455;52.710;6.502;2023-10-31T06:18:23;10.50;99.90
52555;DHT22;38455;52.710;6.502;2023-10-31T06:20:49;10.50;99.90
52555;DHT22;38455;52.710;6.502;2023-10-31T06:23:14;10.50;99.90
52555;DHT22;38455;52.710;6.502;2023-10-31T06:25:40;10.50;99.90
52555;DHT22;38455;52.710;6.502;2023-10-31T06:28:06;10.50;99.90
52555;DHT22;38455;52.710;6.502;2023-10-31T06:30:31;10.50;99.90
52555;DHT22;38455;52.710;6.502;2023-10-31T06:32:58;10.50;99.90
52555;DHT22;38455;52.710;6.502;2023-10-31T06:35:24;10.50;99.90
52555;DHT22;38455;52.710;6.502;2023-10-31T06:37:54;10.50;99.90
52555;DHT22;38455;52.710;6.502;2023-10-31T06:40:20;10.50;99.90
52555;DHT22;38455;52.710;6.502;2023-10-31T06:42:45;10.50;99.90
52555;DHT22;38455;52.710;6.502;2023-10-31T06:45:11;10.50;99.90
52555;DHT22;38455;52.710;6.502;2023-10-31T06:47:37;10.60;99.90
52555;DHT22;38455;52.710;6.502;2023-10-31T06:50:04;10.50;99.90
52555;DHT22;38455;52.710;6.502;2023-10-31T06:52:30;10.50;99.90
52555;DHT22;38455;52.710;6.502;2023-10-31T06:54:55;10.50;99.90
52555;DHT22;38455;52.710;6.502;2023-10-31T06:57:21;10.60;99.90
52555;DHT22;38455;52.710;6.502;2023-10-31T06:59:46;10.60;99.90
52555;DHT22;38455;52.710;6.502;2023-10-31T07:02:12;10.60;99.90
52555;DHT22;38455;52.710;6.502;2023-10-31T07:04:39;10.60;99.90
52555;DHT22;38455;52.710;6.502;2023-10-31T07:07:05;10.60;99.90
52555;DHT22;38455;52.710;6.502;2023-10-31T07:09:30;10.60;99.90
52555;DHT22;38455;52.710;6.502;2023-10-31T07:11:56;10.60;99.90
52555;DHT22;38455;52.710;6.502;2023-10-31T07:14:22;10.70;99.90
52555;DHT22;38455;52.710;6.502;2023-10-31T07:16:48;10.70;99.90
52555;DHT22;38455;52.710;6.502;2023-10-31T07:19:14;10.70;99.90
52555;DHT22;38455;52.710;6.502;2023-10-31T07:21:40;10.70;99.90
52555;DHT22;38455;52.710;6.502;2023-10-31T07:24:06;10.70;99.90
52555;DHT22;38455;52.710;6.502;2023-10-31T07:26:34;10.70;99.90
52555;DHT22;38455;52.710;6.502;2023-10-31T07:29:00;10.80;99.90
52555;DHT22;38455;52.710;6.502;2023-10-31T07:31:25;10.80;99.90
52555;DHT22;38455;52.710;6.502;2023-10-31T07:33:51;10.90;99.90
52555;DHT22;38455;52.710;6.502;2023-10-31T07:36:17;10.90;99.90
52555;DHT22;38455;52.710;6.502;2023-10-31T07:38:42;10.90;99.90
52555;DHT22;38455;52.710;6.502;2023-10-31T07:41:08;10.90;99.90
52555;DHT22;38455;52.710;6.502;2023-10-31T07:43:34;10.90;99.90
52555;DHT22;38455;52.710;6.502;2023-10-31T07:46:00;10.90;99.90
52555;DHT22;38455;52.710;6.502;2023-10-31T07:48:25;11.00;99.90
52555;DHT22;38455;52.710;6.502;2023-10-31T07:50:51;11.00;99.90
52555;DHT22;38455;52.710;6.502;2023-10-31T07:53:17;11.10;99.90
52555;DHT22;38455;52.710;6.502;2023-10-31T07:55:42;11.20;99.90
52555;DHT22;38455;52.710;6.502;2023-10-31T07:58:08;11.30;99.90
52555;DHT22;38455;52.710;6.502;2023-10-31T08:00:35;11.30;99.90
52555;DHT22;38455;52.710;6.502;2023-10-31T08:03:02;11.40;99.90
52555;DHT22;38455;52.710;6.502;2023-10-31T08:05:27;11.50;99.90
52555;DHT22;38455;52.710;6.502;2023-10-31T08:07:53;11.60;99.90
52555;DHT22;38455;52.710;6.502;2023-10-31T08:10:19;11.70;99.90
52555;DHT22;38455;52.710;6.502;2023-10-31T08:12:44;11.70;99.90
52555;DHT22;38455;52.710;6.502;2023-10-31T08:15:10;11.80;99.90
52555;DHT22;38455;52.710;6.502;2023-10-31T08:17:36;12.00;99.90
52555;DHT22;38455;52.710;6.502;2023-10-31T08:20:02;12.10;99.90
52555;DHT22;38455;52.710;6.502;2023-10-31T08:22:31;12.20;99.90
52555;DHT22;38455;52.710;6.502;2023-10-31T08:24:56;12.20;99.90
52555;DHT22;38455;52.710;6.502;2023-10-31T08:27:22;12.30;99.90
52555;DHT22;38455;52.710;6.502;2023-10-31T08:29:48;12.70;99.90
52555;DHT22;38455;52.710;6.502;2023-10-31T08:32:14;13.40;99.90
52555;DHT22;38455;52.710;6.502;2023-10-31T08:34:39;13.70;99.90
52555;DHT22;38455;52.710;6.502;2023-10-31T08:37:05;13.80;99.90
52555;DHT22;38455;52.710;6.502;2023-10-31T08:39:30;13.80;99.90
52555;DHT22;38455;52.710;6.502;2023-10-31T08:41:57;13.80;99.90
52555;DHT22;38455;52.710;6.502;2023-10-31T08:44:24;13.80;99.90
52555;DHT22;38455;52.710;6.502;2023-10-31T08:46:50;13.90;99.90
52555;DHT22;38455;52.710;6.502;2023-10-31T08:49:16;13.90;99.90
52555;DHT22;38455;52.710;6.502;2023-10-31T08:51:42;13.90;99.90
52555;DHT22;38455;52.710;6.502;2023-10-31T08:54:08;14.10;99.90
52555;DHT22;38455;52.710;6.502;2023-10-31T08:56:34;14.20;99.90
52555;DHT22;38455;52.710;6.502;2023-10-31T08:59:00;14.10;99.90
52555;DHT22;38455;52.710;6.502;2023-10-31T09:01:26;14.10;99.90
52555;DHT22;38455;52.710;6.502;2023-10-31T09:03:52;14.40;99.90
52555;DHT22;38455;52.710;6.502;2023-10-31T09:06:18;15.10;99.90
52555;DHT22;38455;52.710;6.502;2023-10-31T09:08:44;15.10;99.90
52555;DHT22;38455;52.710;6.502;2023-10-31T09:11:09;14.90;99.90
52555;DHT22;38455;52.710;6.502;2023-10-31T09:13:35;14.60;99.90
52555;DHT22;38455;52.710;6.502;2023-10-31T09:16:01;14.70;99.90
52555;DHT22;38455;52.710;6.502;2023-10-31T09:18:27;14.70;99.90
52555;DHT22;38455;52.710;6.502;2023-10-31T09:20:53;14.40;99.90
52555;DHT22;38455;52.710;6.502;2023-10-31T09:23:18;14.20;99.90
52555;DHT22;38455;52.710;6.502;2023-10-31T09:25:45;14.20;99.90
52555;DHT22;38455;52.710;6.502;2023-10-31T09:28:11;14.20;99.90
52555;DHT22;38455;52.710;6.502;2023-10-31T09:30:36;14.10;99.90
52555;DHT22;38455;52.710;6.502;2023-10-31T09:33:02;14.20;99.90
52555;DHT22;38455;52.710;6.502;2023-10-31T09:35:28;14.30;99.90
52555;DHT22;38455;52.710;6.502;2023-10-31T09:37:54;14.40;99.90
52555;DHT22;38455;52.710;6.502;2023-10-31T09:40:20;15.00;99.90
52555;DHT22;38455;52.710;6.502;2023-10-31T09:42:46;15.20;99.90
52555;DHT22;38455;52.710;6.502;2023-10-31T09:45:13;15.40;99.90
52555;DHT22;38455;52.710;6.502;2023-10-31T09:47:39;15.70;99.90
52555;DHT22;38455;52.710;6.502;2023-10-31T09:50:06;15.80;99.90
52555;DHT22;38455;52.710;6.502;2023-10-31T09:52:34;15.80;99.90
52555;DHT22;38455;52.710;6.502;2023-10-31T09:55:01;15.90;99.90
52555;DHT22;38455;52.710;6.502;2023-10-31T09:57:27;16.30;99.90
52555;DHT22;38455;52.710;6.502;2023-10-31T09:59:53;16.80;99.90
52555;DHT22;38455;52.710;6.502;2023-10-31T10:02:19;17.40;99.90
52555;DHT22;38455;52.710;6.502;2023-10-31T10:04:44;17.50;99.90
52555;DHT22;38455;52.710;6.502;2023-10-31T10:07:15;17.30;99.90
52555;DHT22;38455;52.710;6.502;2023-10-31T10:09:43;16.90;99.90
52555;DHT22;38455;52.710;6.502;2023-10-31T10:12:17;16.90;99.90
52555;DHT22;38455;52.710;6.502;2023-10-31T10:14:46;16.80;99.90
52555;DHT22;38455;52.710;6.502;2023-10-31T10:17:17;17.00;99.90
52555;DHT22;38455;52.710;6.502;2023-10-31T10:19:45;17.00;99.90
52555;DHT22;38455;52.710;6.502;2023-10-31T10:22:11;17.00;99.90
52555;DHT22;38455;52.710;6.502;2023-10-31T10:24:39;16.60;99.90
52555;DHT22;38455;52.710;6.502;2023-10-31T10:27:07;16.00;99.90
52555;DHT22;38455;52.710;6.502;2023-10-31T10:29:34;15.60;99.90
52555;DHT22;38455;52.710;6.502;2023-10-31T10:32:00;15.10;99.90
52555;DHT22;38455;52.710;6.502;2023-10-31T10:34:26;14.80;99.90
52555;DHT22;38455;52.710;6.502;2023-10-31T10:36:52;14.40;99.90
52555;DHT22;38455;52.710;6.502;2023-10-31T10:39:20;14.20;99.90
52555;DHT22;38455;52.710;6.502;2023-10-31T10:41:51;13.90;99.90
52555;DHT22;38455;52.710;6.502;2023-10-31T10:44:19;13.80;99.90
52555;DHT22;38455;52.710;6.502;2023-10-31T10:46:50;13.70;99.90
52555;DHT22;38455;52.710;6.502;2023-10-31T10:49:23;13.80;99.90
52555;DHT22;38455;52.710;6.502;2023-10-31T10:51:53;14.00;99.90
52555;DHT22;38455;52.710;6.502;2023-10-31T10:54:32;13.90;99.90
52555;DHT22;38455;52.710;6.502;2023-10-31T10:57:29;14.10;99.90
52555;DHT22;38455;52.710;6.502;2023-10-31T11:00:01;14.10;99.90
52555;DHT22;38455;52.710;6.502;2023-10-31T11:02:27;14.10;99.90
52555;DHT22;38455;52.710;6.502;2023-10-31T11:04:54;14.30;99.90
52555;DHT22;38455;52.710;6.502;2023-10-31T11:07:21;14.50;99.90
52555;DHT22;38455;52.710;6.502;2023-10-31T11:09:49;14.50;99.90
52555;DHT22;38455;52.710;6.502;2023-10-31T11:12:15;14.40;99.90
52555;DHT22;38455;52.710;6.502;2023-10-31T11:14:43;14.30;99.90
52555;DHT22;38455;52.710;6.502;2023-10-31T11:17:24;14.20;99.90
52555;DHT22;38455;52.710;6.502;2023-10-31T11:19:51;14.20;99.90
52555;DHT22;38455;52.710;6.502;2023-10-31T11:22:18;14.00;99.90
52555;DHT22;38455;52.710;6.502;2023-10-31T11:24:44;14.00;99.90
52555;DHT22;38455;52.710;6.502;2023-10-31T11:27:10;13.90;99.90
52555;DHT22;38455;52.710;6.502;2023-10-31T11:29:36;13.70;99.90
52555;DHT22;38455;52.710;6.502;2023-10-31T11:32:02;13.70;99.90
52555;DHT22;38455;52.710;6.502;2023-10-31T11:34:30;13.50;99.90
52555;DHT22;38455;52.710;6.502;2023-10-31T11:37:17;13.40;99.90
52555;DHT22;38455;52.710;6.502;2023-10-31T11:42:38;13.40;99.90
52555;DHT22;38455;52.710;6.502;2023-10-31T11:45:04;13.50;99.90
52555;DHT22;38455;52.710;6.502;2023-10-31T11:47:49;14.10;99.90
52555;DHT22;38455;52.710;6.502;2023-10-31T11:50:16;15.40;99.90
52555;DHT22;38455;52.710;6.502;2023-10-31T11:52:42;16.10;99.90
52555;DHT22;38455;52.710;6.502;2023-10-31T11:55:11;16.60;99.90
52555;DHT22;38455;52.710;6.502;2023-10-31T11:57:38;16.90;99.90
52555;DHT22;38455;52.710;6.502;2023-10-31T12:00:05;17.50;99.90
52555;DHT22;38455;52.710;6.502;2023-10-31T12:02:32;18.30;99.90
52555;DHT22;38455;52.710;6.502;2023-10-31T12:05:12;18.90;99.90
52555;DHT22;38455;52.710;6.502;2023-10-31T12:07:44;19.80;99.90
52555;DHT22;38455;52.710;6.502;2023-10-31T12:10:11;19.30;99.90
52555;DHT22;38455;52.710;6.502;2023-10-31T12:12:37;18.90;99.90
52555;DHT22;38455;52.710;6.502;2023-10-31T12:15:07;18.40;99.90
52555;DHT22;38455;52.710;6.502;2023-10-31T12:17:36;18.00;99.90
52555;DHT22;38455;52.710;6.502;2023-10-31T12:20:06;17.70;99.90
52555;DHT22;38455;52.710;6.502;2023-10-31T12:22:33;17.20;99.90
52555;DHT22;38455;52.710;6.502;2023-10-31T12:25:06;16.60;99.90
52555;DHT22;38455;52.710;6.502;2023-10-31T12:27:49;16.20;99.90
52555;DHT22;38455;52.710;6.502;2023-10-31T12:30:20;15.90;99.90
52555;DHT22;38455;52.710;6.502;2023-10-31T12:32:56;15.50;99.90
52555;DHT22;38455;52.710;6.502;2023-10-31T12:35:23;15.30;99.90
52555;DHT22;38455;52.710;6.502;2023-10-31T12:37:50;15.00;99.90
52555;DHT22;38455;52.710;6.502;2023-10-31T12:40:21;15.00;99.90
52555;DHT22;38455;52.710;6.502;2023-10-31T12:42:48;14.90;99.90
52555;DHT22;38455;52.710;6.502;2023-10-31T12:45:14;14.80;99.90
52555;DHT22;38455;52.710;6.502;2023-10-31T12:47:41;14.70;99.90
52555;DHT22;38455;52.710;6.502;2023-10-31T12:52:50;14.60;99.90
52555;DHT22;38455;52.710;6.502;2023-10-31T12:55:21;14.60;99.90
52555;DHT22;38455;52.710;6.502;2023-10-31T12:57:47;14.70;99.90
52555;DHT22;38455;52.710;6.502;2023-10-31T13:00:17;14.60;99.90
52555;DHT22;38455;52.710;6.502;2023-10-31T13:03:06;14.60;99.90
52555;DHT22;38455;52.710;6.502;2023-10-31T13:05:33;14.70;99.90
52555;DHT22;38455;52.710;6.502;2023-10-31T13:08:00;14.60;99.90
52555;DHT22;38455;52.710;6.502;2023-10-31T13:10:29;14.50;99.90
52555;DHT22;38455;52.710;6.502;2023-10-31T13:12:55;14.30;99.90
52555;DHT22;38455;52.710;6.502;2023-10-31T13:15:22;14.20;99.90
52555;DHT22;38455;52.710;6.502;2023-10-31T13:17:49;14.10;99.90
52555;DHT22;38455;52.710;6.502;2023-10-31T13:20:16;14.10;99.90
52555;DHT22;38455;52.710;6.502;2023-10-31T13:22:43;14.00;99.90
52555;DHT22;38455;52.710;6.502;2023-10-31T13:25:10;14.00;99.90
52555;DHT22;38455;52.710;6.502;2023-10-31T13:27:40;13.90;99.90
52555;DHT22;38455;52.710;6.502;2023-10-31T13:30:07;13.90;99.90
52555;DHT22;38455;52.710;6.502;2023-10-31T13:32:33;13.90;99.90
52555;DHT22;38455;52.710;6.502;2023-10-31T13:34:59;13.90;99.90
52555;DHT22;38455;52.710;6.502;2023-10-31T13:37:25;13.70;99.90
52555;DHT22;38455;52.710;6.502;2023-10-31T13:39:51;13.60;99.90
52555;DHT22;38455;52.710;6.502;2023-10-31T13:42:17;13.60;99.90
52555;DHT22;38455;52.710;6.502;2023-10-31T13:44:43;13.40;99.90
52555;DHT22;38455;52.710;6.502;2023-10-31T13:47:09;13.40;99.90
52555;DHT22;38455;52.710;6.502;2023-10-31T13:49:36;13.30;99.90
52555;DHT22;38455;52.710;6.502;2023-10-31T13:52:06;13.10;99.90
52555;DHT22;38455;52.710;6.502;2023-10-31T13:54:32;13.00;99.90
52555;DHT22;38455;52.710;6.502;2023-10-31T13:56:58;13.00;99.90
52555;DHT22;38455;52.710;6.502;2023-10-31T13:59:24;13.00;99.90
52555;DHT22;38455;52.710;6.502;2023-10-31T14:01:50;12.90;99.90
52555;DHT22;38455;52.710;6.502;2023-10-31T14:04:17;12.80;99.90
52555;DHT22;38455;52.710;6.502;2023-10-31T14:06:42;12.80;99.90
52555;DHT22;38455;52.710;6.502;2023-10-31T14:09:10;12.80;99.90
52555;DHT22;38455;52.710;6.502;2023-10-31T14:11:36;12.80;99.90
52555;DHT22;38455;52.710;6.502;2023-10-31T14:14:03;12.80;99.90
52555;DHT22;38455;52.710;6.502;2023-10-31T14:16:39;12.80;99.90
52555;DHT22;38455;52.710;6.502;2023-10-31T14:19:06;12.70;99.90
52555;DHT22;38455;52.710;6.502;2023-10-31T14:21:33;12.70;99.90
52555;DHT22;38455;52.710;6.502;2023-10-31T14:23:59;12.60;99.90
52555;DHT22;38455;52.710;6.502;2023-10-31T14:26:26;12.60;99.90
52555;DHT22;38455;52.710;6.502;2023-10-31T14:28:52;12.50;99.90
52555;DHT22;38455;52.710;6.502;2023-10-31T14:31:18;12.50;99.90
52555;DHT22;38455;52.710;6.502;2023-10-31T14:33:46;12.40;99.90
52555;DHT22;38455;52.710;6.502;2023-10-31T14:36:12;12.40;99.90
52555;DHT22;38455;52.710;6.502;2023-10-31T14:38:39;12.30;99.90
52555;DHT22;38455;52.710;6.502;2023-10-31T14:41:05;12.30;99.90
52555;DHT22;38455;52.710;6.502;2023-10-31T14:43:31;12.30;99.90
52555;DHT22;38455;52.710;6.502;2023-10-31T14:45:57;12.20;99.90
52555;DHT22;38455;52.710;6.502;2023-10-31T14:48:23;12.10;99.90
52555;DHT22;38455;52.710;6.502;2023-10-31T14:50:49;12.10;99.90
52555;DHT22;38455;52.710;6.502;2023-10-31T14:53:15;12.10;99.90
52555;DHT22;38455;52.710;6.502;2023-10-31T14:55:41;12.00;99.90
52555;DHT22;38455;52.710;6.502;2023-10-31T14:58:07;12.00;99.90
52555;DHT22;38455;52.710;6.502;2023-10-31T15:00:35;11.90;99.90
52555;DHT22;38455;52.710;6.502;2023-10-31T15:03:01;11.90;99.90
52555;DHT22;38455;52.710;6.502;2023-10-31T15:05:27;11.90;99.90
52555;DHT22;38455;52.710;6.502;2023-10-31T15:07:52;11.90;99.90
52555;DHT22;38455;52.710;6.502;2023-10-31T15:10:19;11.90;99.90
52555;DHT22;38455;52.710;6.502;2023-10-31T15:12:47;11.80;99.90
52555;DHT22;38455;52.710;6.502;2023-10-31T15:15:15;11.70;99.90
52555;DHT22;38455;52.710;6.502;2023-10-31T15:17:40;11.70;99.90
52555;DHT22;38455;52.710;6.502;2023-10-31T15:20:07;11.70;99.90
52555;DHT22;38455;52.710;6.502;2023-10-31T15:22:35;11.60;99.90
52555;DHT22;38455;52.710;6.502;2023-10-31T15:25:02;11.60;99.90
52555;DHT22;38455;52.710;6.502;2023-10-31T15:27:27;11.60;99.90
52555;DHT22;38455;52.710;6.502;2023-10-31T15:29:53;11.60;99.90
52555;DHT22;38455;52.710;6.502;2023-10-31T15:32:19;11.40;99.90